createdAt,value
2019-03-27T00:02:00.377Z,98728.30
2019-03-27T00:04:28.638Z,98727.06
2019-03-27T00:06:56.957Z,98727.80
2019-03-27T00:09:25.324Z,98725.13
2019-03-27T00:11:53.673Z,98727.45
2019-03-27T00:14:24.477Z,98723.89
2019-03-27T00:16:52.876Z,98716.98
2019-03-27T00:19:21.141Z,98718.59
2019-03-27T00:21:49.448Z,98714.16
2019-03-27T00:24:19.966Z,98706.87
2019-03-27T00:26:48.320Z,98706.87
2019-03-27T00:29:19.496Z,98706.53
2019-03-27T00:31:47.849Z,98706.58
2019-03-27T00:34:16.164Z,98702.33
2019-03-27T00:36:44.459Z,98695.89
2019-03-27T00:39:12.720Z,98692.88
2019-03-27T00:41:40.989Z,98693.61
2019-03-27T00:44:09.339Z,98696.46
2019-03-27T00:46:37.701Z,98693.12
2019-03-27T00:49:06.180Z,98693.69
2019-03-27T00:51:34.578Z,98693.17
2019-03-27T00:54:02.953Z,98693.70
2019-03-27T00:56:33.071Z,98698.16
2019-03-27T00:59:03.114Z,98695.67
2019-03-27T01:01:31.436Z,98684.64
2019-03-27T01:03:59.782Z,98691.77
2019-03-27T01:06:28.117Z,98689.11
2019-03-27T01:08:56.445Z,98686.45
2019-03-27T01:11:24.707Z,98692.67
2019-03-27T01:13:53.112Z,98695.16
2019-03-27T01:16:21.424Z,98688.20
2019-03-27T01:18:49.730Z,98698.89
2019-03-27T01:21:18.113Z,98688.20
2019-03-27T01:23:46.393Z,98693.00
2019-03-27T01:26:14.772Z,98693.87
2019-03-27T01:28:44.706Z,98697.77
2019-03-27T01:31:14.668Z,98691.72
2019-03-27T01:33:42.996Z,98690.69
2019-03-27T01:36:11.450Z,98684.45
2019-03-27T01:38:39.772Z,98690.30
2019-03-27T01:41:08.152Z,98691.02
2019-03-27T01:43:38.051Z,98691.20
2019-03-27T01:46:06.379Z,98690.63
2019-03-27T01:48:34.653Z,98684.41
2019-03-27T01:51:02.934Z,98688.53
2019-03-27T01:53:31.264Z,98687.80
2019-03-27T01:55:59.544Z,98688.70
2019-03-27T01:58:27.826Z,98691.55
2019-03-27T02:00:56.127Z,98683.00
2019-03-27T02:03:24.392Z,98686.22
2019-03-27T02:05:52.721Z,98684.08
2019-03-27T02:08:21.075Z,98686.44
2019-03-27T02:10:49.322Z,98683.23
2019-03-27T02:13:17.603Z,98688.77
2019-03-27T02:15:45.904Z,98683.95
2019-03-27T02:18:14.155Z,98690.18
2019-03-27T02:20:42.513Z,98687.34
2019-03-27T02:23:10.867Z,98693.02
2019-03-27T02:25:39.251Z,98693.02
2019-03-27T02:28:07.604Z,98696.58
2019-03-27T02:30:35.896Z,98688.20
2019-03-27T02:33:04.149Z,98686.44
2019-03-27T02:35:32.536Z,98688.93
2019-03-27T02:38:01.026Z,98685.37
2019-03-27T02:40:29.274Z,98686.80
2019-03-27T02:42:57.784Z,98685.20
2019-03-27T02:45:26.083Z,98690.19
2019-03-27T02:47:54.371Z,98693.75
2019-03-27T02:50:22.650Z,98690.39
2019-03-27T02:52:50.933Z,98696.97
2019-03-27T02:55:19.288Z,98694.31
2019-03-27T02:57:47.568Z,98690.06
2019-03-27T03:00:15.861Z,98698.43
2019-03-27T03:02:44.237Z,98699.51
2019-03-27T03:05:12.508Z,98701.30
2019-03-27T03:07:40.821Z,98697.02
2019-03-27T03:10:09.536Z,98699.16
2019-03-27T03:12:37.940Z,98698.09
2019-03-27T03:15:06.236Z,98698.99
2019-03-27T03:17:34.548Z,98697.40
2019-03-27T03:20:02.925Z,98694.91
2019-03-27T03:22:31.181Z,98688.31
2019-03-27T03:24:59.565Z,98692.77
2019-03-27T03:27:28.000Z,98692.77
2019-03-27T03:29:57.868Z,98689.42
2019-03-27T03:32:26.213Z,98694.57
2019-03-27T03:34:54.475Z,98688.91
2019-03-27T03:37:22.750Z,98689.42
2019-03-27T03:39:51.054Z,98685.17
2019-03-27T03:42:19.341Z,98689.25
2019-03-27T03:44:47.591Z,98686.42
2019-03-27T03:47:15.867Z,98217.04
2019-03-27T03:49:44.122Z,98691.77
2019-03-27T03:52:12.384Z,98687.70
2019-03-27T03:54:40.734Z,98692.67
2019-03-27T03:57:09.113Z,98695.51
2019-03-27T03:59:37.381Z,98696.58
2019-03-27T04:02:05.704Z,98694.64
2019-03-27T04:04:34.070Z,98704.05
2019-03-27T04:07:02.364Z,98699.59
2019-03-27T04:09:30.648Z,98695.16
2019-03-27T04:11:58.912Z,98700.87
2019-03-27T04:14:27.167Z,98699.80
2019-03-27T04:16:57.050Z,98699.59
2019-03-27T04:19:25.390Z,98701.73
2019-03-27T04:21:53.631Z,98701.21
2019-03-27T04:24:21.927Z,98704.73
2019-03-27T04:26:50.336Z,98705.46
2019-03-27T04:29:18.669Z,98704.39
2019-03-27T04:31:47.002Z,98705.81
2019-03-27T04:34:15.250Z,98712.55
2019-03-27T04:36:43.508Z,98709.88
2019-03-27T04:39:11.891Z,98712.03
2019-03-27T04:41:40.244Z,98704.39
2019-03-27T04:44:08.566Z,98706.19
2019-03-27T04:46:36.842Z,98713.31
2019-03-27T04:49:07.664Z,98709.92
2019-03-27T04:51:35.328Z,98712.58
2019-03-27T04:54:03.687Z,98716.14
2019-03-27T04:56:32.069Z,98714.38
2019-03-27T04:59:00.388Z,98719.87
2019-03-27T05:01:28.799Z,98714.89
2019-03-27T05:03:57.309Z,98722.91
2019-03-27T05:06:25.750Z,97720.63
2019-03-27T05:08:54.064Z,98724.33
2019-03-27T05:11:22.347Z,98726.30
2019-03-27T05:13:50.763Z,98730.72
2019-03-27T05:16:19.073Z,98727.19
2019-03-27T05:18:47.466Z,98732.69
2019-03-27T05:21:15.733Z,98735.89
2019-03-27T05:23:44.013Z,98733.23
2019-03-27T05:26:12.382Z,98739.08
2019-03-27T05:28:40.695Z,98742.81
2019-03-27T05:31:09.022Z,98737.84
2019-03-27T05:33:37.431Z,98736.42
2019-03-27T05:36:05.861Z,98742.81
2019-03-27T05:38:34.340Z,98746.34
2019-03-27T05:41:02.618Z,98748.14
2019-03-27T05:43:30.954Z,98750.80
2019-03-27T05:45:59.243Z,98745.83
2019-03-27T05:48:30.434Z,98751.67
2019-03-27T05:50:58.752Z,98756.64
2019-03-27T05:53:27.036Z,98757.38
2019-03-27T05:55:55.296Z,98753.81
2019-03-27T05:58:23.556Z,98755.41
2019-03-27T06:00:51.840Z,98757.34
2019-03-27T06:03:20.174Z,98757.34
2019-03-27T06:05:48.445Z,98763.94
2019-03-27T06:08:16.707Z,98766.23
2019-03-27T06:10:45.021Z,98766.05
2019-03-27T06:13:13.293Z,98771.55
2019-03-27T06:15:44.877Z,98772.80
2019-03-27T06:18:13.425Z,98781.48
2019-03-27T06:20:41.558Z,98775.60
2019-03-27T06:23:09.869Z,98780.38
2019-03-27T06:25:38.169Z,98779.30
2019-03-27T06:28:06.471Z,98784.62
2019-03-27T06:30:34.744Z,98786.56
2019-03-27T06:33:03.022Z,98784.55
2019-03-27T06:35:31.361Z,98785.23
2019-03-27T06:37:59.714Z,98779.52
2019-03-27T06:40:28.009Z,98779.34
2019-03-27T06:42:56.376Z,98777.36
2019-03-27T06:45:24.617Z,98778.77
2019-03-27T06:47:53.166Z,98783.53
2019-03-27T06:50:21.450Z,98781.03
2019-03-27T06:52:49.707Z,98786.70
2019-03-27T06:55:18.010Z,98788.63
2019-03-27T06:57:46.396Z,98790.55
2019-03-27T07:00:14.752Z,98790.15
2019-03-27T07:02:43.025Z,98791.51
2019-03-27T07:05:11.335Z,98797.67
2019-03-27T07:07:39.734Z,98797.34
2019-03-27T07:10:08.000Z,98795.47
2019-03-27T07:12:36.359Z,98802.38
2019-03-27T07:15:05.889Z,98806.77
2019-03-27T07:17:34.149Z,98806.33
2019-03-27T07:20:02.576Z,98806.77
2019-03-27T07:22:30.839Z,98808.09
2019-03-27T07:24:59.100Z,98805.53
2019-03-27T07:27:27.354Z,98805.61
2019-03-27T07:29:55.619Z,98811.94
2019-03-27T07:32:23.898Z,98812.58
2019-03-27T07:34:52.155Z,98819.45
2019-03-27T07:37:20.454Z,98816.52
2019-03-27T07:39:48.712Z,98818.00
2019-03-27T07:42:16.968Z,98818.77
2019-03-27T07:44:45.230Z,98822.97
2019-03-27T07:47:13.489Z,98826.05
2019-03-27T07:49:41.755Z,98831.59
2019-03-27T07:52:10.016Z,98831.81
2019-03-27T07:54:38.296Z,98834.37
2019-03-27T07:57:06.563Z,98831.22
2019-03-27T07:59:34.813Z,98824.30
2019-03-27T08:02:03.088Z,98830.09
2019-03-27T08:04:31.356Z,98833.70
2019-03-27T08:06:59.628Z,98834.80
2019-03-27T08:09:28.267Z,98840.93
2019-03-27T08:11:56.525Z,98837.29
2019-03-27T08:14:24.770Z,98841.55
2019-03-27T08:16:53.107Z,98841.47
2019-03-27T08:19:21.384Z,98834.42
2019-03-27T08:21:49.651Z,98840.55
2019-03-27T08:24:17.917Z,98851.25
2019-03-27T08:26:46.167Z,98831.19
2019-03-27T08:29:14.432Z,98838.73
2019-03-27T08:31:42.715Z,98832.11
2019-03-27T08:34:10.969Z,98832.22
2019-03-27T08:36:39.234Z,98827.53
2019-03-27T08:39:08.525Z,98836.02
2019-03-27T08:41:37.249Z,98839.88
2019-03-27T08:44:07.312Z,98838.69
2019-03-27T08:46:35.573Z,98839.43
2019-03-27T08:49:03.833Z,98836.72
2019-03-27T08:51:32.095Z,98836.93
2019-03-27T08:54:00.348Z,98847.76
2019-03-27T08:56:28.664Z,98847.94
2019-03-27T08:58:56.930Z,98849.50
2019-03-27T09:01:25.193Z,98842.54
2019-03-27T09:03:53.450Z,98848.70
2019-03-27T09:06:33.149Z,98849.14
2019-03-27T09:08:52.264Z,98850.18
2019-03-27T09:11:20.524Z,98860.67
2019-03-27T09:13:48.857Z,98857.34
2019-03-27T09:16:17.120Z,98858.81
2019-03-27T09:18:45.385Z,98861.18
2019-03-27T09:21:13.640Z,98862.37
2019-03-27T09:23:41.902Z,98861.76
2019-03-27T09:26:10.255Z,98864.13
2019-03-27T09:28:38.525Z,98854.16
2019-03-27T09:31:07.085Z,98861.39
2019-03-27T09:33:35.643Z,98869.05
2019-03-27T09:36:04.410Z,98864.03
2019-03-27T09:38:33.072Z,98867.59
2019-03-27T09:41:01.351Z,98870.34
2019-03-27T09:43:29.616Z,98864.42
2019-03-27T09:46:03.252Z,98875.17
2019-03-27T09:48:31.512Z,98875.08
2019-03-27T09:50:59.777Z,98877.59
2019-03-27T09:53:28.046Z,98872.20
2019-03-27T09:55:56.300Z,98872.85
2019-03-27T09:58:24.560Z,98876.73
2019-03-27T10:00:55.106Z,98878.23
2019-03-27T10:03:23.423Z,98879.19
2019-03-27T10:05:51.786Z,98876.30
2019-03-27T10:08:20.045Z,98871.41
2019-03-27T10:10:49.071Z,98878.16
2019-03-27T10:13:17.519Z,98871.05
2019-03-27T10:15:45.868Z,98868.69
2019-03-27T10:18:14.274Z,98874.02
2019-03-27T10:20:42.506Z,98872.00
2019-03-27T10:23:10.763Z,98858.85
2019-03-27T10:25:39.121Z,98865.34
2019-03-27T10:28:07.362Z,98867.27
2019-03-27T10:30:35.628Z,98864.59
2019-03-27T10:33:03.893Z,98863.58
2019-03-27T10:35:32.222Z,98854.37
2019-03-27T10:38:00.498Z,98857.68
2019-03-27T10:40:28.761Z,98857.19
2019-03-27T10:42:57.014Z,98860.61
2019-03-27T10:45:25.278Z,98857.52
2019-03-27T10:47:53.546Z,98857.29
2019-03-27T10:50:21.813Z,98859.53
2019-03-27T10:52:50.095Z,98857.52
2019-03-27T10:55:18.493Z,98866.54
2019-03-27T10:57:51.130Z,98867.44
2019-03-27T11:00:19.500Z,98862.91
2019-03-27T11:02:47.741Z,98866.33
2019-03-27T11:05:16.661Z,98864.58
2019-03-27T11:07:45.059Z,98864.46
2019-03-27T11:10:13.507Z,98861.20
2019-03-27T11:12:41.781Z,98857.09
2019-03-27T11:15:10.792Z,98850.77
2019-03-27T11:17:39.153Z,98855.60
2019-03-27T11:20:10.083Z,98853.05
2019-03-27T11:22:38.437Z,98843.55
2019-03-27T11:25:10.415Z,98842.44
2019-03-27T11:27:38.780Z,98840.16
2019-03-27T11:30:07.222Z,98835.20
2019-03-27T11:32:37.118Z,98836.36
2019-03-27T11:35:06.116Z,98839.09
2019-03-27T11:37:34.522Z,98832.42
2019-03-27T11:40:02.821Z,98836.59
2019-03-27T11:42:31.206Z,98834.50
2019-03-27T11:44:59.611Z,98837.13
2019-03-27T11:47:27.928Z,98840.73
2019-03-27T11:49:56.332Z,98838.37
2019-03-27T11:52:29.719Z,98835.48
2019-03-27T11:54:57.917Z,98834.20
2019-03-27T11:57:28.313Z,98832.42
2019-03-27T11:59:56.735Z,98834.22
2019-03-27T12:02:29.433Z,98835.99
2019-03-27T12:04:57.802Z,98833.36
2019-03-27T12:07:26.091Z,98833.18
2019-03-27T12:09:54.374Z,98824.55
2019-03-27T12:12:22.631Z,98827.02
2019-03-27T12:14:51.894Z,98826.16
2019-03-27T12:17:20.158Z,98823.04
2019-03-27T12:19:48.407Z,98819.16
2019-03-27T12:22:16.682Z,98821.05
2019-03-27T12:24:44.944Z,98821.58
2019-03-27T12:27:13.216Z,98810.23
2019-03-27T12:29:41.474Z,98811.16
2019-03-27T12:32:09.756Z,98816.24
2019-03-27T12:34:38.004Z,98813.09
2019-03-27T12:37:06.294Z,98808.23
2019-03-27T12:39:34.543Z,98810.63
2019-03-27T12:42:02.797Z,98805.94
2019-03-27T12:44:31.136Z,98814.52
2019-03-27T12:46:59.454Z,98811.23
2019-03-27T12:49:27.740Z,98806.69
2019-03-27T12:51:55.998Z,98806.19
2019-03-27T12:54:24.263Z,98807.45
2019-03-27T12:56:52.524Z,98807.82
2019-03-27T12:59:20.777Z,98807.85
2019-03-27T13:01:49.036Z,98808.32
2019-03-27T13:04:17.285Z,98809.28
2019-03-27T13:06:45.621Z,98806.14
2019-03-27T13:09:13.885Z,98808.05
2019-03-27T13:11:42.136Z,98801.05
2019-03-27T13:14:10.392Z,98804.63
2019-03-27T13:16:38.649Z,98803.83
2019-03-27T13:19:06.897Z,98799.30
2019-03-27T13:21:35.153Z,98805.13
2019-03-27T13:24:03.418Z,98795.65
2019-03-27T13:26:31.672Z,98801.34
2019-03-27T13:28:59.924Z,98798.64
2019-03-27T13:31:28.179Z,98797.14
2019-03-27T13:33:56.428Z,98791.07
2019-03-27T13:36:24.680Z,98790.64
2019-03-27T13:38:52.940Z,98787.34
2019-03-27T13:41:21.202Z,98795.86
2019-03-27T13:43:49.451Z,98791.55
2019-03-27T13:46:17.784Z,98793.16
2019-03-27T13:48:46.044Z,98792.93
2019-03-27T13:51:14.306Z,98799.00
2019-03-27T13:53:42.565Z,98790.18
2019-03-27T13:56:10.847Z,98789.40
2019-03-27T13:58:39.101Z,98791.09
2019-03-27T14:01:08.871Z,98791.36
2019-03-27T14:03:37.486Z,98782.31
2019-03-27T14:06:05.740Z,98782.14
2019-03-27T14:08:34.001Z,98789.27
2019-03-27T14:11:02.252Z,98787.78
2019-03-27T14:13:30.500Z,98788.25
2019-03-27T14:15:58.761Z,98788.13
2019-03-27T14:18:27.032Z,98787.67
2019-03-27T14:20:55.303Z,98787.85
2019-03-27T14:23:23.840Z,98776.03
2019-03-27T14:25:52.089Z,98781.87
2019-03-27T14:28:20.351Z,98777.47
2019-03-27T14:30:49.945Z,98781.37
2019-03-27T14:33:18.707Z,98210.00
2019-03-27T14:35:47.034Z,98787.40
2019-03-27T14:38:15.363Z,98782.99
2019-03-27T14:40:43.687Z,98782.09
2019-03-27T14:43:11.938Z,98778.68
2019-03-27T14:45:40.199Z,98781.29
2019-03-27T14:48:08.441Z,98776.52
2019-03-27T14:50:36.688Z,98781.38
2019-03-27T14:53:04.937Z,98781.52
2019-03-27T14:55:33.215Z,98785.38
2019-03-27T14:58:01.471Z,98783.09
2019-03-27T15:00:29.718Z,98793.91
2019-03-27T15:02:58.005Z,98785.61
2019-03-27T15:05:26.343Z,98786.50
2019-03-27T15:07:54.595Z,98782.86
2019-03-27T15:10:22.852Z,98783.85
2019-03-27T15:12:51.126Z,98779.31
2019-03-27T15:15:19.358Z,98781.87
2019-03-27T15:17:47.599Z,98782.91
2019-03-27T15:20:16.042Z,98788.88
2019-03-27T15:22:44.297Z,98787.84
2019-03-27T15:25:12.576Z,98791.38
2019-03-27T15:27:40.835Z,98791.45
2019-03-27T15:30:12.767Z,98791.59
2019-03-27T15:32:41.093Z,98789.98
2019-03-27T15:35:09.725Z,98792.37
2019-03-27T15:37:37.965Z,98786.75
2019-03-27T15:40:06.749Z,98787.89
2019-03-27T15:42:35.014Z,98792.88
2019-03-27T15:45:05.303Z,98788.13
2019-03-27T15:47:33.555Z,98791.44
2019-03-27T15:50:01.810Z,98785.69
2019-03-27T15:52:36.510Z,98789.96
2019-03-27T15:55:00.403Z,98786.95
2019-03-27T15:57:28.649Z,98786.73
2019-03-27T15:59:56.895Z,98781.83
2019-03-27T16:02:25.150Z,98784.61
2019-03-27T16:04:53.609Z,98780.25
2019-03-27T16:07:22.058Z,98784.88
2019-03-27T16:09:50.302Z,98781.11
2019-03-27T16:12:19.595Z,98790.05
2019-03-27T16:14:47.843Z,98782.77
2019-03-27T16:17:16.101Z,98788.92
2019-03-27T16:19:44.346Z,98791.14
2019-03-27T16:22:12.627Z,98790.87
2019-03-27T16:24:40.875Z,98792.25
2019-03-27T16:27:09.138Z,98789.96
2019-03-27T16:29:37.392Z,98790.19
2019-03-27T16:32:05.909Z,98788.16
2019-03-27T16:34:34.602Z,98789.16
2019-03-27T16:37:02.935Z,98789.11
2019-03-27T16:39:31.272Z,98790.09
2019-03-27T16:41:59.552Z,98787.31
2019-03-27T16:44:27.821Z,98797.36
2019-03-27T16:46:56.277Z,98803.60
2019-03-27T16:49:25.588Z,98800.67
2019-03-27T16:51:56.408Z,98803.28
2019-03-27T16:54:23.870Z,98799.25
2019-03-27T16:56:52.215Z,98821.31
2019-03-27T16:59:20.468Z,98820.53
2019-03-27T17:01:48.753Z,98819.76
2019-03-27T17:04:17.013Z,98821.58
2019-03-27T17:06:45.485Z,98823.14
2019-03-27T17:09:13.781Z,98824.88
2019-03-27T17:11:42.060Z,98827.58
2019-03-27T17:14:10.402Z,98835.06
2019-03-27T17:16:38.657Z,98835.61
2019-03-27T17:19:06.950Z,98837.78
2019-03-27T17:21:35.325Z,98848.44
2019-03-27T17:24:03.673Z,98846.47
2019-03-27T17:26:31.935Z,98850.17
2019-03-27T17:29:00.217Z,98847.44
2019-03-27T17:31:28.510Z,98849.77
2019-03-27T17:33:56.781Z,98847.80
2019-03-27T17:36:25.049Z,98857.69
2019-03-27T17:38:53.343Z,98855.64
2019-03-27T17:41:21.640Z,98073.64
2019-03-27T17:43:49.969Z,98861.55
2019-03-27T17:46:18.761Z,98863.26
2019-03-27T17:48:47.025Z,98869.30
2019-03-27T17:51:15.315Z,98468.45
2019-03-27T17:53:43.959Z,98868.70
2019-03-27T17:56:12.252Z,98612.78
2019-03-27T17:58:40.516Z,98882.31
2019-03-27T18:01:08.898Z,98877.14
2019-03-27T18:03:37.168Z,98880.59
2019-03-27T18:06:05.432Z,98883.75
2019-03-27T18:08:33.733Z,98880.70
2019-03-27T18:11:01.991Z,98884.85
2019-03-27T18:13:30.296Z,98889.02
2019-03-27T18:16:23.107Z,98892.78
2019-03-27T18:18:51.370Z,98895.29
2019-03-27T18:21:21.246Z,98890.81
2019-03-27T18:23:51.479Z,98892.94
2019-03-27T18:26:19.809Z,98895.44
2019-03-27T18:28:48.119Z,98894.49
2019-03-27T18:31:16.557Z,98895.75
2019-03-27T18:33:44.844Z,98895.54
2019-03-27T18:36:13.100Z,98900.61
2019-03-27T18:38:41.425Z,98902.25
2019-03-27T18:41:09.761Z,98907.92
2019-03-27T18:43:38.039Z,98912.94
2019-03-27T18:46:06.289Z,98909.23
2019-03-27T18:48:34.556Z,98907.77
2019-03-27T18:51:02.840Z,98913.29
2019-03-27T18:53:31.216Z,98912.13
2019-03-27T18:55:59.462Z,98918.23
2019-03-27T18:58:27.738Z,98920.74
2019-03-27T19:00:56.024Z,98929.88
2019-03-27T19:03:24.282Z,98929.52
2019-03-27T19:05:52.551Z,98933.33
2019-03-27T19:08:20.861Z,98928.36
2019-03-27T19:10:49.127Z,98927.91
2019-03-27T19:13:17.417Z,98936.02
2019-03-27T19:15:45.684Z,98931.95
2019-03-27T19:18:13.962Z,98933.94
2019-03-27T19:20:42.243Z,98927.22
2019-03-27T19:23:10.607Z,98934.42
2019-03-27T19:25:38.885Z,98934.27
2019-03-27T19:28:07.144Z,98936.63
2019-03-27T19:30:35.498Z,98931.81
2019-03-27T19:33:03.783Z,98936.31
2019-03-27T19:35:32.113Z,98935.61
2019-03-27T19:38:00.383Z,98944.45
2019-03-27T19:40:28.661Z,98938.55
2019-03-27T19:42:56.932Z,98934.13
2019-03-27T19:45:25.182Z,98938.98
2019-03-27T19:47:53.434Z,98938.36
2019-03-27T19:50:21.721Z,98940.55
2019-03-27T19:52:49.970Z,98944.34
2019-03-27T19:55:18.313Z,98940.28
2019-03-27T19:57:46.579Z,98946.38
2019-03-27T20:00:14.917Z,98947.63
2019-03-27T20:02:43.183Z,98953.39
2019-03-27T20:05:11.503Z,98956.25
2019-03-27T20:07:39.803Z,98958.78
2019-03-27T20:10:08.137Z,98957.61
2019-03-27T20:12:36.532Z,98959.38
2019-03-27T20:15:12.397Z,98961.68
2019-03-27T20:17:37.126Z,98963.32
2019-03-27T20:20:08.562Z,98963.20
2019-03-27T20:22:36.854Z,98965.74
2019-03-27T20:25:07.947Z,98965.42
2019-03-27T20:27:36.296Z,98964.21
2019-03-27T20:30:07.858Z,98966.94
2019-03-27T20:32:36.117Z,98970.06
2019-03-27T20:35:06.217Z,98971.54
2019-03-27T20:37:34.509Z,98973.53
2019-03-27T20:40:04.965Z,98972.28
2019-03-27T20:42:33.231Z,98972.63
2019-03-27T20:45:01.520Z,98972.70
2019-03-27T20:47:29.758Z,98972.37
2019-03-27T20:49:58.025Z,98754.14
2019-03-27T20:52:26.277Z,98962.91
2019-03-27T20:54:55.563Z,98969.01
2019-03-27T20:57:23.964Z,98964.23
2019-03-27T20:59:52.220Z,98970.68
2019-03-27T21:02:20.589Z,98969.84
2019-03-27T21:04:48.831Z,98964.71
2019-03-27T21:07:17.158Z,98963.48
2019-03-27T21:09:45.424Z,98966.57
2019-03-27T21:12:13.679Z,98965.31
2019-03-27T21:14:41.935Z,98965.34
2019-03-27T21:17:10.279Z,98964.52
2019-03-27T21:19:38.552Z,98969.03
2019-03-27T21:22:06.832Z,98960.49
2019-03-27T21:24:35.074Z,98967.32
2019-03-27T21:27:03.347Z,98966.58
2019-03-27T21:29:31.606Z,98966.97
2019-03-27T21:31:59.868Z,98965.33
2019-03-27T21:34:28.136Z,98957.31
2019-03-27T21:36:56.515Z,98964.81
2019-03-27T21:39:26.033Z,98963.73
2019-03-27T21:41:54.482Z,98964.56
2019-03-27T21:44:22.763Z,98962.20
2019-03-27T21:46:51.313Z,98965.77
2019-03-27T21:49:19.783Z,98968.30
2019-03-27T21:51:48.076Z,98964.95
2019-03-27T21:54:16.325Z,98973.00
2019-03-27T21:56:44.728Z,98968.41
2019-03-27T21:59:12.964Z,98968.11
2019-03-27T22:01:41.243Z,98968.33
2019-03-27T22:04:09.558Z,98967.84
2019-03-27T22:06:37.891Z,98970.88
2019-03-27T22:09:08.857Z,98978.60
2019-03-27T22:11:36.877Z,98978.52
2019-03-27T22:14:05.149Z,98981.02
2019-03-27T22:16:33.496Z,98983.38
2019-03-27T22:19:01.763Z,98983.27
2019-03-27T22:21:30.038Z,98989.95
2019-03-27T22:23:58.444Z,98995.53
2019-03-27T22:26:26.737Z,98993.55
2019-03-27T22:28:55.006Z,98995.81
2019-03-27T22:31:25.849Z,98994.78
2019-03-27T22:33:54.155Z,98991.81
2019-03-27T22:36:22.496Z,98997.39
2019-03-27T22:38:50.746Z,98998.14
2019-03-27T22:41:19.033Z,98997.98
2019-03-27T22:43:47.310Z,98995.48
2019-03-27T22:46:15.587Z,98995.83
2019-03-27T22:48:43.859Z,98991.56
2019-03-27T22:51:12.114Z,98998.00
2019-03-27T22:53:40.387Z,98996.80
2019-03-27T22:56:08.684Z,98996.23
2019-03-27T22:58:36.937Z,99000.31
2019-03-27T23:01:05.199Z,98997.25
2019-03-27T23:03:33.636Z,98993.15
2019-03-27T23:06:01.902Z,98997.58
2019-03-27T23:08:30.170Z,98996.33
2019-03-27T23:10:58.468Z,99000.13
2019-03-27T23:13:26.784Z,98999.23
2019-03-27T23:15:55.064Z,98990.50
2019-03-27T23:18:23.323Z,98994.63
2019-03-27T23:20:51.618Z,98992.08
2019-03-27T23:23:19.899Z,98989.80
2019-03-27T23:25:48.175Z,98992.65
2019-03-27T23:28:16.432Z,98995.50
2019-03-27T23:30:44.785Z,98998.89
2019-03-27T23:33:13.051Z,98996.91
2019-03-27T23:35:41.439Z,98996.91
2019-03-27T23:38:09.705Z,98991.59
2019-03-27T23:40:37.990Z,98990.34
2019-03-27T23:43:06.309Z,98986.97
2019-03-27T23:45:34.574Z,98989.82
2019-03-27T23:48:02.844Z,98988.75
2019-03-27T23:50:31.111Z,98987.32
2019-03-27T23:52:59.500Z,98987.84
2019-03-27T23:55:27.773Z,98989.84
2019-03-27T23:57:56.035Z,98991.14
